sensor_id;sensor_type;location;lat;lon;timestamp;P1;durP1;ratioP1;P2;durP2;ratioP2
47519;SDS011;33252;48.122;11.538;2023-01-29T00:02:19;24.20;;;13.68;;
47519;SDS011;33252;48.122;11.538;2023-01-29T00:04:45;22.70;;;11.43;;
47519;SDS011;33252;48.122;11.538;2023-01-29T00:07:11;29.30;;;13.75;;
47519;SDS011;33252;48.122;11.538;2023-01-29T00:09:36;24.52;;;12.75;;
47519;SDS011;33252;48.122;11.538;2023-01-29T00:12:02;26.27;;;12.02;;
47519;SDS011;33252;48.122;11.538;2023-01-29T00:14:28;20.55;;;11.80;;
47519;SDS011;33252;48.122;11.538;2023-01-29T00:16:54;20.90;;;11.65;;
47519;SDS011;33252;48.122;11.538;2023-01-29T00:19:19;21.13;;;12.27;;
47519;SDS011;33252;48.122;11.538;2023-01-29T00:21:45;23.95;;;13.20;;
47519;SDS011;33252;48.122;11.538;2023-01-29T00:24:11;24.23;;;11.35;;
47519;SDS011;33252;48.122;11.538;2023-01-29T00:26:37;25.02;;;11.68;;
47519;SDS011;33252;48.122;11.538;2023-01-29T00:29:06;20.98;;;12.70;;
47519;SDS011;33252;48.122;11.538;2023-01-29T00:31:32;22.13;;;11.98;;
47519;SDS011;33252;48.122;11.538;2023-01-29T00:33:58;20.75;;;11.80;;
47519;SDS011;33252;48.122;11.538;2023-01-29T00:36:24;21.52;;;12.43;;
47519;SDS011;33252;48.122;11.538;2023-01-29T00:38:56;23.10;;;12.15;;
47519;SDS011;33252;48.122;11.538;2023-01-29T00:41:30;20.95;;;11.95;;
47519;SDS011;33252;48.122;11.538;2023-01-29T00:44:15;22.90;;;12.02;;
47519;SDS011;33252;48.122;11.538;2023-01-29T00:47:01;23.95;;;11.85;;
47519;SDS011;33252;48.122;11.538;2023-01-29T00:49:27;27.33;;;14.43;;
47519;SDS011;33252;48.122;11.538;2023-01-29T00:51:54;27.00;;;13.55;;
47519;SDS011;33252;48.122;11.538;2023-01-29T00:54:38;24.73;;;12.95;;
47519;SDS011;33252;48.122;11.538;2023-01-29T00:57:04;21.02;;;10.95;;
47519;SDS011;33252;48.122;11.538;2023-01-29T00:59:29;21.25;;;11.80;;
47519;SDS011;33252;48.122;11.538;2023-01-29T01:01:55;21.17;;;12.00;;
47519;SDS011;33252;48.122;11.538;2023-01-29T01:04:39;20.30;;;12.40;;
47519;SDS011;33252;48.122;11.538;2023-01-29T01:07:05;22.05;;;11.50;;
47519;SDS011;33252;48.122;11.538;2023-01-29T01:09:33;19.10;;;11.02;;
47519;SDS011;33252;48.122;11.538;2023-01-29T01:12:18;23.88;;;11.75;;
47519;SDS011;33252;48.122;11.538;2023-01-29T01:14:44;23.48;;;12.15;;
47519;SDS011;33252;48.122;11.538;2023-01-29T01:17:10;21.52;;;11.40;;
47519;SDS011;33252;48.122;11.538;2023-01-29T01:19:35;20.10;;;11.38;;
47519;SDS011;33252;48.122;11.538;2023-01-29T01:22:01;20.10;;;10.98;;
47519;SDS011;33252;48.122;11.538;2023-01-29T01:24:29;18.08;;;10.05;;
47519;SDS011;33252;48.122;11.538;2023-01-29T01:26:54;15.63;;;8.98;;
47519;SDS011;33252;48.122;11.538;2023-01-29T01:29:20;16.00;;;9.55;;
47519;SDS011;33252;48.122;11.538;2023-01-29T01:31:48;17.75;;;9.38;;
47519;SDS011;33252;48.122;11.538;2023-01-29T01:34:14;17.38;;;9.02;;
47519;SDS011;33252;48.122;11.538;2023-01-29T01:36:39;20.02;;;9.10;;
47519;SDS011;33252;48.122;11.538;2023-01-29T01:39:05;16.30;;;9.80;;
47519;SDS011;33252;48.122;11.538;2023-01-29T01:41:31;19.10;;;10.40;;
47519;SDS011;33252;48.122;11.538;2023-01-29T01:43:57;17.55;;;10.77;;
47519;SDS011;33252;48.122;11.538;2023-01-29T01:46:28;14.90;;;9.23;;
47519;SDS011;33252;48.122;11.538;2023-01-29T01:49:11;17.98;;;10.00;;
47519;SDS011;33252;48.122;11.538;2023-01-29T01:51:42;18.45;;;9.27;;
47519;SDS011;33252;48.122;11.538;2023-01-29T01:54:13;18.38;;;10.50;;
47519;SDS011;33252;48.122;11.538;2023-01-29T01:56:48;16.85;;;9.50;;
47519;SDS011;33252;48.122;11.538;2023-01-29T02:01:46;17.00;;;8.48;;
47519;SDS011;33252;48.122;11.538;2023-01-29T02:04:16;16.60;;;8.95;;
47519;SDS011;33252;48.122;11.538;2023-01-29T02:07:05;17.00;;;8.68;;
47519;SDS011;33252;48.122;11.538;2023-01-29T02:09:53;12.38;;;8.32;;
47519;SDS011;33252;48.122;11.538;2023-01-29T02:12:22;16.23;;;8.70;;
47519;SDS011;33252;48.122;11.538;2023-01-29T02:14:48;13.77;;;8.32;;
47519;SDS011;33252;48.122;11.538;2023-01-29T02:17:16;11.88;;;7.32;;
47519;SDS011;33252;48.122;11.538;2023-01-29T02:22:39;16.08;;;8.77;;
47519;SDS011;33252;48.122;11.538;2023-01-29T02:25:46;11.30;;;7.10;;
47519;SDS011;33252;48.122;11.538;2023-01-29T02:36:38;18.02;;;8.93;;
47519;SDS011;33252;48.122;11.538;2023-01-29T02:42:08;16.65;;;8.65;;
47519;SDS011;33252;48.122;11.538;2023-01-29T02:44:49;16.10;;;9.40;;
47519;SDS011;33252;48.122;11.538;2023-01-29T02:52:44;16.65;;;9.43;;
47519;SDS011;33252;48.122;11.538;2023-01-29T02:58:16;15.88;;;8.90;;
47519;SDS011;33252;48.122;11.538;2023-01-29T03:00:54;16.30;;;9.40;;
47519;SDS011;33252;48.122;11.538;2023-01-29T03:03:31;15.68;;;9.25;;
47519;SDS011;33252;48.122;11.538;2023-01-29T03:06:02;15.93;;;9.15;;
47519;SDS011;33252;48.122;11.538;2023-01-29T03:08:53;14.95;;;8.70;;
47519;SDS011;33252;48.122;11.538;2023-01-29T03:11:26;15.05;;;9.93;;
47519;SDS011;33252;48.122;11.538;2023-01-29T03:14:05;16.38;;;9.30;;
47519;SDS011;33252;48.122;11.538;2023-01-29T03:19:16;15.18;;;9.02;;
47519;SDS011;33252;48.122;11.538;2023-01-29T03:22:03;13.13;;;7.68;;
47519;SDS011;33252;48.122;11.538;2023-01-29T03:27:41;13.77;;;8.77;;
47519;SDS011;33252;48.122;11.538;2023-01-29T03:30:42;19.08;;;10.27;;
47519;SDS011;33252;48.122;11.538;2023-01-29T03:33:31;17.52;;;8.77;;
47519;SDS011;33252;48.122;11.538;2023-01-29T03:36:03;18.42;;;9.60;;
47519;SDS011;33252;48.122;11.538;2023-01-29T03:38:34;16.23;;;9.02;;
47519;SDS011;33252;48.122;11.538;2023-01-29T03:41:11;13.80;;;8.48;;
47519;SDS011;33252;48.122;11.538;2023-01-29T03:44:00;15.57;;;9.30;;
47519;SDS011;33252;48.122;11.538;2023-01-29T03:46:54;15.30;;;7.75;;
47519;SDS011;33252;48.122;11.538;2023-01-29T03:49:46;15.10;;;8.82;;
47519;SDS011;33252;48.122;11.538;2023-01-29T03:52:24;15.68;;;8.60;;
47519;SDS011;33252;48.122;11.538;2023-01-29T03:55:21;17.20;;;8.63;;
47519;SDS011;33252;48.122;11.538;2023-01-29T04:01:08;15.30;;;8.77;;
47519;SDS011;33252;48.122;11.538;2023-01-29T04:03:41;13.80;;;8.63;;
47519;SDS011;33252;48.122;11.538;2023-01-29T04:06:29;15.30;;;9.15;;
47519;SDS011;33252;48.122;11.538;2023-01-29T04:09:08;13.95;;;8.98;;
47519;SDS011;33252;48.122;11.538;2023-01-29T04:11:50;16.23;;;9.13;;
47519;SDS011;33252;48.122;11.538;2023-01-29T04:14:20;19.15;;;9.32;;
47519;SDS011;33252;48.122;11.538;2023-01-29T04:16:47;15.38;;;8.68;;
47519;SDS011;33252;48.122;11.538;2023-01-29T04:20:01;15.95;;;9.30;;
47519;SDS011;33252;48.122;11.538;2023-01-29T04:22:29;19.65;;;9.43;;
47519;SDS011;33252;48.122;11.538;2023-01-29T04:24:59;17.48;;;9.80;;
47519;SDS011;33252;48.122;11.538;2023-01-29T04:27:36;14.45;;;9.55;;
47519;SDS011;33252;48.122;11.538;2023-01-29T04:33:18;17.85;;;8.80;;
47519;SDS011;33252;48.122;11.538;2023-01-29T04:44:19;16.50;;;8.95;;
47519;SDS011;33252;48.122;11.538;2023-01-29T04:46:53;16.70;;;9.23;;
47519;SDS011;33252;48.122;11.538;2023-01-29T04:49:46;18.48;;;9.50;;
47519;SDS011;33252;48.122;11.538;2023-01-29T04:52:20;19.77;;;11.50;;
47519;SDS011;33252;48.122;11.538;2023-01-29T04:57:33;17.42;;;9.90;;
47519;SDS011;33252;48.122;11.538;2023-01-29T05:00:12;17.42;;;10.35;;
47519;SDS011;33252;48.122;11.538;2023-01-29T05:02:43;22.05;;;11.30;;
47519;SDS011;33252;48.122;11.538;2023-01-29T05:05:10;16.80;;;9.68;;
47519;SDS011;33252;48.122;11.538;2023-01-29T05:07:38;19.67;;;11.85;;
47519;SDS011;33252;48.122;11.538;2023-01-29T05:10:06;17.98;;;10.38;;
47519;SDS011;33252;48.122;11.538;2023-01-29T05:12:36;21.25;;;11.05;;
47519;SDS011;33252;48.122;11.538;2023-01-29T05:15:03;19.55;;;11.15;;
47519;SDS011;33252;48.122;11.538;2023-01-29T05:17:33;17.95;;;11.18;;
47519;SDS011;33252;48.122;11.538;2023-01-29T05:19:59;15.75;;;8.95;;
47519;SDS011;33252;48.122;11.538;2023-01-29T05:22:24;20.40;;;11.75;;
47519;SDS011;33252;48.122;11.538;2023-01-29T05:24:51;15.50;;;8.05;;
47519;SDS011;33252;48.122;11.538;2023-01-29T05:27:19;17.33;;;8.48;;
47519;SDS011;33252;48.122;11.538;2023-01-29T05:30:05;13.38;;;8.15;;
47519;SDS011;33252;48.122;11.538;2023-01-29T05:32:32;17.13;;;9.48;;
47519;SDS011;33252;48.122;11.538;2023-01-29T05:34:58;16.80;;;7.93;;
47519;SDS011;33252;48.122;11.538;2023-01-29T05:37:23;16.05;;;7.63;;
47519;SDS011;33252;48.122;11.538;2023-01-29T05:39:49;14.95;;;6.38;;
47519;SDS011;33252;48.122;11.538;2023-01-29T05:42:14;9.65;;;6.05;;
47519;SDS011;33252;48.122;11.538;2023-01-29T05:44:40;11.85;;;6.03;;
47519;SDS011;33252;48.122;11.538;2023-01-29T05:47:06;13.52;;;7.90;;
47519;SDS011;33252;48.122;11.538;2023-01-29T05:49:31;12.95;;;6.68;;
47519;SDS011;33252;48.122;11.538;2023-01-29T05:51:57;13.88;;;7.38;;
47519;SDS011;33252;48.122;11.538;2023-01-29T05:54:23;11.70;;;6.97;;
47519;SDS011;33252;48.122;11.538;2023-01-29T05:56:48;11.20;;;7.35;;
47519;SDS011;33252;48.122;11.538;2023-01-29T05:59:14;13.93;;;7.85;;
47519;SDS011;33252;48.122;11.538;2023-01-29T06:01:40;15.65;;;9.25;;
47519;SDS011;33252;48.122;11.538;2023-01-29T06:04:06;14.85;;;8.25;;
47519;SDS011;33252;48.122;11.538;2023-01-29T06:06:32;13.65;;;8.55;;
47519;SDS011;33252;48.122;11.538;2023-01-29T06:08:58;16.98;;;9.10;;
47519;SDS011;33252;48.122;11.538;2023-01-29T06:11:23;17.10;;;9.48;;
47519;SDS011;33252;48.122;11.538;2023-01-29T06:13:49;19.50;;;8.90;;
47519;SDS011;33252;48.122;11.538;2023-01-29T06:16:15;18.52;;;9.88;;
47519;SDS011;33252;48.122;11.538;2023-01-29T06:18:40;18.17;;;9.35;;
47519;SDS011;33252;48.122;11.538;2023-01-29T06:21:07;18.55;;;9.80;;
47519;SDS011;33252;48.122;11.538;2023-01-29T06:23:35;14.27;;;8.68;;
47519;SDS011;33252;48.122;11.538;2023-01-29T06:26:09;16.52;;;9.45;;
47519;SDS011;33252;48.122;11.538;2023-01-29T06:28:36;12.75;;;8.45;;
47519;SDS011;33252;48.122;11.538;2023-01-29T06:31:02;15.88;;;8.25;;
47519;SDS011;33252;48.122;11.538;2023-01-29T06:33:29;12.65;;;7.97;;
47519;SDS011;33252;48.122;11.538;2023-01-29T06:35:56;13.73;;;9.20;;
47519;SDS011;33252;48.122;11.538;2023-01-29T06:38:23;16.23;;;8.35;;
47519;SDS011;33252;48.122;11.538;2023-01-29T06:40:50;14.00;;;8.15;;
47519;SDS011;33252;48.122;11.538;2023-01-29T06:43:16;21.90;;;11.57;;
47519;SDS011;33252;48.122;11.538;2023-01-29T06:45:52;19.65;;;10.35;;
47519;SDS011;33252;48.122;11.538;2023-01-29T06:48:19;17.25;;;9.63;;
47519;SDS011;33252;48.122;11.538;2023-01-29T06:50:46;17.88;;;10.32;;
47519;SDS011;33252;48.122;11.538;2023-01-29T06:53:13;16.92;;;9.00;;
47519;SDS011;33252;48.122;11.538;2023-01-29T06:55:39;13.10;;;7.00;;
47519;SDS011;33252;48.122;11.538;2023-01-29T06:58:05;15.48;;;8.63;;
47519;SDS011;33252;48.122;11.538;2023-01-29T07:00:32;18.60;;;9.55;;
47519;SDS011;33252;48.122;11.538;2023-01-29T07:02:58;15.65;;;8.43;;
47519;SDS011;33252;48.122;11.538;2023-01-29T07:05:24;14.02;;;8.63;;
47519;SDS011;33252;48.122;11.538;2023-01-29T07:07:49;13.23;;;8.13;;
47519;SDS011;33252;48.122;11.538;2023-01-29T07:10:15;16.70;;;9.45;;
47519;SDS011;33252;48.122;11.538;2023-01-29T07:12:41;20.15;;;11.43;;
47519;SDS011;33252;48.122;11.538;2023-01-29T07:15:07;18.15;;;10.30;;
47519;SDS011;33252;48.122;11.538;2023-01-29T07:17:33;16.42;;;9.90;;
47519;SDS011;33252;48.122;11.538;2023-01-29T07:19:58;24.60;;;9.90;;
47519;SDS011;33252;48.122;11.538;2023-01-29T07:22:24;17.13;;;9.38;;
47519;SDS011;33252;48.122;11.538;2023-01-29T07:24:50;21.15;;;10.68;;
47519;SDS011;33252;48.122;11.538;2023-01-29T07:27:15;17.60;;;9.85;;
47519;SDS011;33252;48.122;11.538;2023-01-29T07:29:41;21.42;;;12.13;;
47519;SDS011;33252;48.122;11.538;2023-01-29T07:32:06;15.65;;;9.50;;
47519;SDS011;33252;48.122;11.538;2023-01-29T07:34:32;17.45;;;11.13;;
47519;SDS011;33252;48.122;11.538;2023-01-29T07:36:58;15.48;;;9.52;;
47519;SDS011;33252;48.122;11.538;2023-01-29T07:39:24;14.98;;;9.48;;
47519;SDS011;33252;48.122;11.538;2023-01-29T07:41:49;14.02;;;8.02;;
47519;SDS011;33252;48.122;11.538;2023-01-29T07:44:15;17.85;;;9.20;;
47519;SDS011;33252;48.122;11.538;2023-01-29T07:46:41;16.00;;;9.30;;
47519;SDS011;33252;48.122;11.538;2023-01-29T07:49:07;17.23;;;9.13;;
47519;SDS011;33252;48.122;11.538;2023-01-29T07:51:32;13.82;;;8.10;;
47519;SDS011;33252;48.122;11.538;2023-01-29T07:53:58;16.17;;;8.52;;
47519;SDS011;33252;48.122;11.538;2023-01-29T07:56:24;14.32;;;7.63;;
47519;SDS011;33252;48.122;11.538;2023-01-29T07:58:49;14.18;;;8.38;;
47519;SDS011;33252;48.122;11.538;2023-01-29T08:01:15;15.90;;;8.63;;
47519;SDS011;33252;48.122;11.538;2023-01-29T08:03:40;14.93;;;8.07;;
47519;SDS011;33252;48.122;11.538;2023-01-29T08:06:06;15.25;;;7.78;;
47519;SDS011;33252;48.122;11.538;2023-01-29T08:08:32;15.18;;;7.97;;
47519;SDS011;33252;48.122;11.538;2023-01-29T08:10:59;14.75;;;7.75;;
47519;SDS011;33252;48.122;11.538;2023-01-29T08:13:26;14.77;;;7.55;;
47519;SDS011;33252;48.122;11.538;2023-01-29T08:15:52;12.95;;;7.10;;
47519;SDS011;33252;48.122;11.538;2023-01-29T08:18:18;11.80;;;6.72;;
47519;SDS011;33252;48.122;11.538;2023-01-29T08:20:43;12.23;;;6.18;;
47519;SDS011;33252;48.122;11.538;2023-01-29T08:23:11;10.65;;;6.10;;
47519;SDS011;33252;48.122;11.538;2023-01-29T08:25:39;12.15;;;5.95;;
47519;SDS011;33252;48.122;11.538;2023-01-29T08:28:04;11.18;;;5.65;;
47519;SDS011;33252;48.122;11.538;2023-01-29T08:30:31;11.15;;;6.43;;
47519;SDS011;33252;48.122;11.538;2023-01-29T08:32:58;11.38;;;5.57;;
47519;SDS011;33252;48.122;11.538;2023-01-29T08:35:24;10.35;;;5.93;;
47519;SDS011;33252;48.122;11.538;2023-01-29T08:37:56;11.13;;;5.57;;
47519;SDS011;33252;48.122;11.538;2023-01-29T08:40:24;15.60;;;6.35;;
47519;SDS011;33252;48.122;11.538;2023-01-29T08:42:50;9.82;;;5.78;;
47519;SDS011;33252;48.122;11.538;2023-01-29T08:45:16;12.48;;;5.78;;
47519;SDS011;33252;48.122;11.538;2023-01-29T08:47:45;12.65;;;6.30;;
47519;SDS011;33252;48.122;11.538;2023-01-29T08:50:13;11.90;;;6.38;;
47519;SDS011;33252;48.122;11.538;2023-01-29T08:52:39;10.57;;;5.43;;
47519;SDS011;33252;48.122;11.538;2023-01-29T08:55:05;11.57;;;5.45;;
47519;SDS011;33252;48.122;11.538;2023-01-29T08:57:31;10.40;;;6.03;;
47519;SDS011;33252;48.122;11.538;2023-01-29T08:59:56;8.80;;;5.25;;
47519;SDS011;33252;48.122;11.538;2023-01-29T09:02:22;9.15;;;4.72;;
47519;SDS011;33252;48.122;11.538;2023-01-29T09:04:48;10.90;;;5.45;;
47519;SDS011;33252;48.122;11.538;2023-01-29T09:07:13;11.27;;;5.53;;
47519;SDS011;33252;48.122;11.538;2023-01-29T09:09:39;9.73;;;4.63;;
47519;SDS011;33252;48.122;11.538;2023-01-29T09:12:05;13.13;;;5.32;;
47519;SDS011;33252;48.122;11.538;2023-01-29T09:14:30;12.27;;;5.55;;
47519;SDS011;33252;48.122;11.538;2023-01-29T09:16:56;11.27;;;5.78;;
47519;SDS011;33252;48.122;11.538;2023-01-29T09:19:22;11.10;;;5.75;;
47519;SDS011;33252;48.122;11.538;2023-01-29T09:21:48;8.90;;;5.13;;
47519;SDS011;33252;48.122;11.538;2023-01-29T09:24:14;9.45;;;5.00;;
47519;SDS011;33252;48.122;11.538;2023-01-29T09:26:40;8.85;;;4.95;;
47519;SDS011;33252;48.122;11.538;2023-01-29T09:29:05;9.10;;;5.43;;
47519;SDS011;33252;48.122;11.538;2023-01-29T09:31:33;11.27;;;6.00;;
47519;SDS011;33252;48.122;11.538;2023-01-29T09:33:59;12.35;;;5.93;;
47519;SDS011;33252;48.122;11.538;2023-01-29T09:36:24;9.13;;;5.53;;
47519;SDS011;33252;48.122;11.538;2023-01-29T09:38:50;14.80;;;6.45;;
47519;SDS011;33252;48.122;11.538;2023-01-29T09:43:54;14.32;;;7.72;;
47519;SDS011;33252;48.122;11.538;2023-01-29T09:46:34;15.70;;;8.05;;
47519;SDS011;33252;48.122;11.538;2023-01-29T09:49:06;13.50;;;7.85;;
47519;SDS011;33252;48.122;11.538;2023-01-29T09:54:20;12.98;;;7.90;;
47519;SDS011;33252;48.122;11.538;2023-01-29T09:56:57;16.00;;;8.32;;
47519;SDS011;33252;48.122;11.538;2023-01-29T09:59:23;14.88;;;8.50;;
47519;SDS011;33252;48.122;11.538;2023-01-29T10:01:57;16.55;;;9.43;;
47519;SDS011;33252;48.122;11.538;2023-01-29T10:04:33;14.20;;;8.85;;
47519;SDS011;33252;48.122;11.538;2023-01-29T10:15:22;15.95;;;9.63;;
47519;SDS011;33252;48.122;11.538;2023-01-29T10:18:25;14.88;;;9.43;;
47519;SDS011;33252;48.122;11.538;2023-01-29T10:23:49;19.55;;;10.45;;
47519;SDS011;33252;48.122;11.538;2023-01-29T10:26:23;15.10;;;9.55;;
47519;SDS011;33252;48.122;11.538;2023-01-29T10:28:53;19.67;;;10.85;;
47519;SDS011;33252;48.122;11.538;2023-01-29T10:33:57;13.88;;;8.10;;
47519;SDS011;33252;48.122;11.538;2023-01-29T10:36:31;16.67;;;9.02;;
47519;SDS011;33252;48.122;11.538;2023-01-29T10:39:02;14.13;;;9.38;;
47519;SDS011;33252;48.122;11.538;2023-01-29T10:44:37;15.48;;;9.38;;
47519;SDS011;33252;48.122;11.538;2023-01-29T10:56:00;13.68;;;9.70;;
47519;SDS011;33252;48.122;11.538;2023-01-29T10:58:58;16.80;;;9.35;;
47519;SDS011;33252;48.122;11.538;2023-01-29T11:01:29;15.55;;;10.20;;
47519;SDS011;33252;48.122;11.538;2023-01-29T11:03:56;17.15;;;11.38;;
47519;SDS011;33252;48.122;11.538;2023-01-29T11:06:31;16.98;;;9.18;;
47519;SDS011;33252;48.122;11.538;2023-01-29T11:11:38;14.57;;;9.00;;
47519;SDS011;33252;48.122;11.538;2023-01-29T11:14:09;17.23;;;9.40;;
47519;SDS011;33252;48.122;11.538;2023-01-29T11:16:40;15.25;;;9.85;;
47519;SDS011;33252;48.122;11.538;2023-01-29T11:19:07;16.75;;;10.60;;
47519;SDS011;33252;48.122;11.538;2023-01-29T11:21:49;14.98;;;9.45;;
47519;SDS011;33252;48.122;11.538;2023-01-29T11:24:19;16.85;;;10.20;;
47519;SDS011;33252;48.122;11.538;2023-01-29T11:26:45;16.08;;;9.70;;
47519;SDS011;33252;48.122;11.538;2023-01-29T11:32:03;14.30;;;10.18;;
47519;SDS011;33252;48.122;11.538;2023-01-29T11:35:01;16.38;;;9.77;;
47519;SDS011;33252;48.122;11.538;2023-01-29T11:37:36;17.42;;;9.90;;
47519;SDS011;33252;48.122;11.538;2023-01-29T11:40:27;16.30;;;9.68;;
47519;SDS011;33252;48.122;11.538;2023-01-29T11:42:58;14.93;;;9.68;;
47519;SDS011;33252;48.122;11.538;2023-01-29T11:45:41;15.70;;;9.73;;
47519;SDS011;33252;48.122;11.538;2023-01-29T11:48:12;16.20;;;10.57;;
47519;SDS011;33252;48.122;11.538;2023-01-29T11:50:40;17.83;;;9.60;;
47519;SDS011;33252;48.122;11.538;2023-01-29T11:53:17;16.77;;;9.77;;
47519;SDS011;33252;48.122;11.538;2023-01-29T11:58:53;15.85;;;11.20;;
47519;SDS011;33252;48.122;11.538;2023-01-29T12:01:30;17.73;;;10.35;;
47519;SDS011;33252;48.122;11.538;2023-01-29T12:03:56;20.38;;;10.48;;
47519;SDS011;33252;48.122;11.538;2023-01-29T12:06:23;16.20;;;10.35;;
47519;SDS011;33252;48.122;11.538;2023-01-29T12:08:59;21.40;;;13.07;;
47519;SDS011;33252;48.122;11.538;2023-01-29T12:11:29;19.48;;;11.93;;
47519;SDS011;33252;48.122;11.538;2023-01-29T12:14:00;17.77;;;11.15;;
47519;SDS011;33252;48.122;11.538;2023-01-29T12:21:45;19.27;;;11.88;;
47519;SDS011;33252;48.122;11.538;2023-01-29T12:32:52;19.80;;;10.63;;
47519;SDS011;33252;48.122;11.538;2023-01-29T12:35:26;17.77;;;9.73;;
47519;SDS011;33252;48.122;11.538;2023-01-29T12:38:11;17.15;;;11.10;;
47519;SDS011;33252;48.122;11.538;2023-01-29T12:41:04;17.50;;;10.18;;
47519;SDS011;33252;48.122;11.538;2023-01-29T12:43:48;22.00;;;13.93;;
47519;SDS011;33252;48.122;11.538;2023-01-29T12:46:30;19.88;;;12.68;;
47519;SDS011;33252;48.122;11.538;2023-01-29T12:49:02;17.75;;;11.02;;
47519;SDS011;33252;48.122;11.538;2023-01-29T12:51:36;19.25;;;11.73;;
47519;SDS011;33252;48.122;11.538;2023-01-29T12:54:08;16.50;;;10.45;;
47519;SDS011;33252;48.122;11.538;2023-01-29T12:56:42;17.10;;;10.35;;
47519;SDS011;33252;48.122;11.538;2023-01-29T12:59:14;17.10;;;10.85;;
47519;SDS011;33252;48.122;11.538;2023-01-29T13:01:53;19.30;;;10.57;;
47519;SDS011;33252;48.122;11.538;2023-01-29T13:04:28;14.95;;;10.00;;
47519;SDS011;33252;48.122;11.538;2023-01-29T13:07:13;18.08;;;11.20;;
47519;SDS011;33252;48.122;11.538;2023-01-29T13:09:45;18.13;;;10.20;;
47519;SDS011;33252;48.122;11.538;2023-01-29T13:12:18;18.67;;;10.90;;
47519;SDS011;33252;48.122;11.538;2023-01-29T13:17:35;20.02;;;11.02;;
47519;SDS011;33252;48.122;11.538;2023-01-29T13:20:10;19.55;;;11.05;;
47519;SDS011;33252;48.122;11.538;2023-01-29T13:22:42;16.50;;;9.93;;
47519;SDS011;33252;48.122;11.538;2023-01-29T13:25:19;17.02;;;10.32;;
47519;SDS011;33252;48.122;11.538;2023-01-29T13:27:45;14.70;;;9.88;;
47519;SDS011;33252;48.122;11.538;2023-01-29T13:30:25;15.40;;;10.35;;
47519;SDS011;33252;48.122;11.538;2023-01-29T13:32:53;20.35;;;10.82;;
47519;SDS011;33252;48.122;11.538;2023-01-29T13:35:32;14.55;;;9.70;;
47519;SDS011;33252;48.122;11.538;2023-01-29T13:38:00;14.50;;;8.38;;
47519;SDS011;33252;48.122;11.538;2023-01-29T13:40:27;16.35;;;9.02;;
47519;SDS011;33252;48.122;11.538;2023-01-29T13:42:55;15.32;;;9.40;;
47519;SDS011;33252;48.122;11.538;2023-01-29T13:45:22;15.05;;;9.25;;
47519;SDS011;33252;48.122;11.538;2023-01-29T13:47:49;14.98;;;8.23;;
47519;SDS011;33252;48.122;11.538;2023-01-29T13:52:59;13.52;;;8.10;;
47519;SDS011;33252;48.122;11.538;2023-01-29T13:55:31;13.55;;;7.85;;
47519;SDS011;33252;48.122;11.538;2023-01-29T13:58:13;12.63;;;7.90;;
47519;SDS011;33252;48.122;11.538;2023-01-29T14:01:03;13.07;;;7.93;;
47519;SDS011;33252;48.122;11.538;2023-01-29T14:05:58;15.10;;;9.93;;
47519;SDS011;33252;48.122;11.538;2023-01-29T14:13:40;11.45;;;7.70;;
47519;SDS011;33252;48.122;11.538;2023-01-29T14:18:57;14.00;;;7.50;;
47519;SDS011;33252;48.122;11.538;2023-01-29T14:21:26;12.15;;;7.75;;
47519;SDS011;33252;48.122;11.538;2023-01-29T14:24:15;10.68;;;6.80;;
47519;SDS011;33252;48.122;11.538;2023-01-29T14:26:44;13.70;;;7.38;;
47519;SDS011;33252;48.122;11.538;2023-01-29T14:29:21;12.27;;;7.40;;
47519;SDS011;33252;48.122;11.538;2023-01-29T14:34:31;10.90;;;6.80;;
47519;SDS011;33252;48.122;11.538;2023-01-29T14:39:43;9.02;;;5.85;;
47519;SDS011;33252;48.122;11.538;2023-01-29T14:42:31;10.13;;;6.25;;
47519;SDS011;33252;48.122;11.538;2023-01-29T14:45:23;10.57;;;6.13;;
47519;SDS011;33252;48.122;11.538;2023-01-29T14:47:52;10.13;;;5.65;;
47519;SDS011;33252;48.122;11.538;2023-01-29T14:52:57;16.83;;;8.13;;
47519;SDS011;33252;48.122;11.538;2023-01-29T14:55:42;15.43;;;7.38;;
47519;SDS011;33252;48.122;11.538;2023-01-29T14:58:18;12.77;;;7.05;;
47519;SDS011;33252;48.122;11.538;2023-01-29T15:00:51;10.98;;;7.15;;
47519;SDS011;33252;48.122;11.538;2023-01-29T15:03:21;11.30;;;7.63;;
47519;SDS011;33252;48.122;11.538;2023-01-29T15:06:15;12.43;;;7.55;;
47519;SDS011;33252;48.122;11.538;2023-01-29T15:08:52;15.48;;;8.38;;
47519;SDS011;33252;48.122;11.538;2023-01-29T15:11:29;13.98;;;7.85;;
47519;SDS011;33252;48.122;11.538;2023-01-29T15:14:08;13.07;;;8.18;;
47519;SDS011;33252;48.122;11.538;2023-01-29T15:19:25;12.80;;;7.55;;
47519;SDS011;33252;48.122;11.538;2023-01-29T15:22:08;12.73;;;8.43;;
47519;SDS011;33252;48.122;11.538;2023-01-29T15:27:35;14.02;;;8.68;;
47519;SDS011;33252;48.122;11.538;2023-01-29T15:30:05;15.05;;;9.18;;
47519;SDS011;33252;48.122;11.538;2023-01-29T15:32:33;14.57;;;7.30;;
47519;SDS011;33252;48.122;11.538;2023-01-29T15:35:07;13.23;;;7.38;;
47519;SDS011;33252;48.122;11.538;2023-01-29T15:37:35;12.25;;;7.45;;
47519;SDS011;33252;48.122;11.538;2023-01-29T15:40:02;11.63;;;8.00;;
47519;SDS011;33252;48.122;11.538;2023-01-29T15:42:40;10.07;;;7.35;;
47519;SDS011;33252;48.122;11.538;2023-01-29T15:48:12;14.57;;;8.27;;
47519;SDS011;33252;48.122;11.538;2023-01-29T15:53:08;13.57;;;8.15;;
47519;SDS011;33252;48.122;11.538;2023-01-29T15:55:42;17.48;;;8.48;;
47519;SDS011;33252;48.122;11.538;2023-01-29T15:58:13;16.08;;;9.68;;
47519;SDS011;33252;48.122;11.538;2023-01-29T16:00:52;21.25;;;10.30;;
47519;SDS011;33252;48.122;11.538;2023-01-29T16:03:20;15.23;;;9.70;;
47519;SDS011;33252;48.122;11.538;2023-01-29T16:05:47;17.02;;;9.77;;
47519;SDS011;33252;48.122;11.538;2023-01-29T16:08:14;15.63;;;10.13;;
47519;SDS011;33252;48.122;11.538;2023-01-29T16:10:41;17.67;;;8.80;;
47519;SDS011;33252;48.122;11.538;2023-01-29T16:13:21;15.48;;;9.55;;
47519;SDS011;33252;48.122;11.538;2023-01-29T16:15:54;15.48;;;8.82;;
47519;SDS011;33252;48.122;11.538;2023-01-29T16:18:23;17.92;;;9.63;;
47519;SDS011;33252;48.122;11.538;2023-01-29T16:21:13;14.38;;;9.13;;
47519;SDS011;33252;48.122;11.538;2023-01-29T16:23:43;14.82;;;9.30;;
47519;SDS011;33252;48.122;11.538;2023-01-29T16:26:17;13.60;;;9.63;;
47519;SDS011;33252;48.122;11.538;2023-01-29T16:28:55;19.73;;;8.82;;
47519;SDS011;33252;48.122;11.538;2023-01-29T16:31:27;15.55;;;8.88;;
47519;SDS011;33252;48.122;11.538;2023-01-29T16:33:55;14.55;;;8.90;;
47519;SDS011;33252;48.122;11.538;2023-01-29T16:36:24;14.15;;;8.65;;
47519;SDS011;33252;48.122;11.538;2023-01-29T16:38:58;17.77;;;10.40;;
47519;SDS011;33252;48.122;11.538;2023-01-29T16:41:30;19.13;;;10.50;;
47519;SDS011;33252;48.122;11.538;2023-01-29T16:44:01;14.50;;;9.35;;
47519;SDS011;33252;48.122;11.538;2023-01-29T16:48:57;15.60;;;9.60;;
47519;SDS011;33252;48.122;11.538;2023-01-29T16:51:28;15.07;;;9.45;;
47519;SDS011;33252;48.122;11.538;2023-01-29T16:56:52;17.73;;;9.23;;
47519;SDS011;33252;48.122;11.538;2023-01-29T16:59:27;16.20;;;10.38;;
47519;SDS011;33252;48.122;11.538;2023-01-29T17:01:57;17.52;;;10.50;;
47519;SDS011;33252;48.122;11.538;2023-01-29T17:04:23;16.55;;;8.77;;
47519;SDS011;33252;48.122;11.538;2023-01-29T17:06:52;17.55;;;10.65;;